createdAt,value
2023-02-23T00:00:30.401Z,7.10
2023-02-23T00:03:01.840Z,8.20
2023-02-23T00:05:31.653Z,7.10
2023-02-23T00:07:59.818Z,7.40
2023-02-23T00:10:31.649Z,7.60
2023-02-23T00:13:00.409Z,7.90
2023-02-23T00:15:32.005Z,5.40
2023-02-23T00:18:00.988Z,7.30
2023-02-23T00:20:29.497Z,7.30
2023-02-23T00:22:58.240Z,7.70
2023-02-23T00:25:26.595Z,7.50
2023-02-23T00:27:55.933Z,7.70
2023-02-23T00:30:24.641Z,7.50
2023-02-23T00:32:53.240Z,7.80
2023-02-23T00:35:21.418Z,7.70
2023-02-23T00:37:53.270Z,8.10
2023-02-23T00:40:23.051Z,7.70
2023-02-23T00:42:52.489Z,8.50
2023-02-23T00:45:21.646Z,7.70
2023-02-23T00:47:49.861Z,9.10
2023-02-23T00:50:18.193Z,8.50
2023-02-23T00:52:48.018Z,7.40
2023-02-23T00:55:16.254Z,8.40
2023-02-23T00:57:45.008Z,7.80
2023-02-23T01:00:16.885Z,7.80
2023-02-23T01:02:45.471Z,7.50
2023-02-23T01:05:20.456Z,8.70
2023-02-23T01:07:49.831Z,8.40
2023-02-23T01:10:21.142Z,8.90
2023-02-23T01:12:54.755Z,8.20
2023-02-23T01:15:24.535Z,8.30
2023-02-23T01:17:52.831Z,8.30
2023-02-23T01:20:21.124Z,8.30
2023-02-23T01:22:50.176Z,8.90
2023-02-23T01:25:18.786Z,8.40
2023-02-23T01:27:47.164Z,8.20
2023-02-23T01:30:15.711Z,9.00
2023-02-23T01:32:45.925Z,8.20
2023-02-23T01:35:14.368Z,8.10
2023-02-23T01:37:43.232Z,8.00
2023-02-23T01:40:28.839Z,8.00
2023-02-23T01:42:58.782Z,8.10
2023-02-23T01:45:29.695Z,8.70
2023-02-23T01:48:03.234Z,8.00
2023-02-23T01:50:57.169Z,8.20
2023-02-23T01:53:26.963Z,8.00
2023-02-23T01:55:58.893Z,8.80
2023-02-23T01:58:29.441Z,8.60
2023-02-23T02:01:01.679Z,8.20
2023-02-23T02:03:35.404Z,8.80
2023-02-23T02:06:04.345Z,8.30
2023-02-23T02:08:33.165Z,8.70
2023-02-23T02:11:25.715Z,8.70
2023-02-23T02:13:55.111Z,9.10
2023-02-23T02:16:49.814Z,9.50
2023-02-23T02:19:53.450Z,8.80
2023-02-23T02:22:27.815Z,8.10
2023-02-23T02:25:16.851Z,9.00
2023-02-23T02:28:04.285Z,8.90
2023-02-23T02:31:15.747Z,8.30
2023-02-23T02:34:16.027Z,9.50
2023-02-23T02:36:58.431Z,8.60
2023-02-23T02:40:16.187Z,8.80
2023-02-23T02:43:11.590Z,8.60
2023-02-23T02:45:45.997Z,8.50
2023-02-23T02:48:31.318Z,9.00
2023-02-23T02:51:22.169Z,8.60
2023-02-23T02:54:10.643Z,8.10
2023-02-23T02:56:40.755Z,8.40
2023-02-23T02:59:30.709Z,9.30
2023-02-23T03:02:17.754Z,8.10
2023-02-23T03:05:04.962Z,8.60
2023-02-23T03:07:59.786Z,8.40
2023-02-23T03:10:55.947Z,7.80
2023-02-23T03:14:25.172Z,7.30
2023-02-23T03:17:18.492Z,7.30
2023-02-23T03:20:30.107Z,7.40
2023-02-23T03:23:25.377Z,7.60
2023-02-23T03:26:33.733Z,8.10
2023-02-23T03:29:27.973Z,7.50
2023-02-23T03:32:44.356Z,8.60
2023-02-23T03:35:51.338Z,7.90
2023-02-23T03:39:05.317Z,8.40
2023-02-23T03:41:53.042Z,7.70
2023-02-23T03:44:53.239Z,8.20
2023-02-23T03:47:42.666Z,8.20
2023-02-23T03:50:36.398Z,8.10
2023-02-23T03:53:23.618Z,9.20
2023-02-23T03:56:12.117Z,9.20
2023-02-23T03:59:04.168Z,9.30
2023-02-23T04:01:51.367Z,8.50
2023-02-23T04:04:38.284Z,9.40
2023-02-23T04:07:25.632Z,9.00
2023-02-23T04:10:13.374Z,10.10
2023-02-23T04:13:12.922Z,9.40
2023-02-23T04:16:00.427Z,8.40
2023-02-23T04:18:34.602Z,8.60
2023-02-23T04:21:03.329Z,9.40
2023-02-23T04:23:32.445Z,8.70
2023-02-23T04:26:00.728Z,10.10
2023-02-23T04:28:29.343Z,9.50
2023-02-23T04:30:57.580Z,9.70
2023-02-23T04:33:27.311Z,9.80
2023-02-23T04:35:55.638Z,10.10
2023-02-23T04:38:23.883Z,9.30
2023-02-23T04:40:52.287Z,9.40
2023-02-23T04:43:20.873Z,10.40
2023-02-23T04:45:49.614Z,9.80
2023-02-23T04:48:17.985Z,9.10
2023-02-23T04:50:46.747Z,9.30
2023-02-23T04:53:14.955Z,10.40
2023-02-23T04:55:44.809Z,10.80
2023-02-23T04:58:14.783Z,10.90
2023-02-23T05:00:43.327Z,12.10
2023-02-23T05:03:12.323Z,11.70
2023-02-23T05:05:40.621Z,11.60
2023-02-23T05:08:09.890Z,12.10
2023-02-23T05:10:40.228Z,10.90
2023-02-23T05:13:08.918Z,11.20
2023-02-23T05:15:38.746Z,11.40
2023-02-23T05:18:08.258Z,12.60
2023-02-23T05:20:36.708Z,14.20
2023-02-23T05:23:06.531Z,14.70
2023-02-23T05:25:35.837Z,12.80
2023-02-23T05:28:05.400Z,13.40
2023-02-23T05:30:34.901Z,12.30
2023-02-23T05:33:03.443Z,11.70
2023-02-23T05:35:31.956Z,11.70
2023-02-23T05:38:00.762Z,10.90
2023-02-23T05:40:29.075Z,10.40
2023-02-23T05:43:00.990Z,10.50
2023-02-23T05:45:30.013Z,10.70
2023-02-23T05:47:59.889Z,11.90
2023-02-23T05:50:28.276Z,11.60
2023-02-23T05:52:56.631Z,10.50
2023-02-23T05:55:27.366Z,10.50
2023-02-23T05:57:56.083Z,10.60
2023-02-23T06:00:24.637Z,10.90
2023-02-23T06:02:55.791Z,11.10
2023-02-23T06:05:24.877Z,10.40
2023-02-23T06:07:54.000Z,10.50
2023-02-23T06:10:23.733Z,10.40
2023-02-23T06:12:52.300Z,11.10
2023-02-23T06:15:23.627Z,10.00
2023-02-23T06:17:53.718Z,10.90
2023-02-23T06:20:22.870Z,10.30
2023-02-23T06:22:53.076Z,10.40
2023-02-23T06:25:21.981Z,10.40
2023-02-23T06:27:53.775Z,10.50
2023-02-23T06:33:16.701Z,10.20
2023-02-23T06:35:46.627Z,10.20
2023-02-23T06:38:14.841Z,10.90
2023-02-23T06:40:44.301Z,11.40
2023-02-23T06:43:12.816Z,12.50
2023-02-23T06:45:42.201Z,12.70
2023-02-23T06:48:10.773Z,11.00
2023-02-23T06:50:40.911Z,11.30
2023-02-23T06:53:09.619Z,12.10
2023-02-23T06:55:38.267Z,10.70
2023-02-23T06:58:08.079Z,10.80
2023-02-23T07:00:37.558Z,10.70
2023-02-23T07:03:07.069Z,9.60
2023-02-23T07:05:35.399Z,10.70
2023-02-23T07:08:04.046Z,10.30
2023-02-23T07:10:32.693Z,9.80
2023-02-23T07:13:01.551Z,9.70
2023-02-23T07:15:30.019Z,10.30
2023-02-23T07:17:58.271Z,9.80
2023-02-23T07:20:26.574Z,9.20
2023-02-23T07:22:55.010Z,10.00
2023-02-23T07:25:23.485Z,9.40
2023-02-23T07:27:54.258Z,9.70
2023-02-23T07:30:25.414Z,9.00
2023-02-23T07:32:53.932Z,8.90
2023-02-23T07:35:22.463Z,9.30
2023-02-23T07:37:51.026Z,9.20
2023-02-23T07:40:19.526Z,7.90
2023-02-23T07:42:47.806Z,7.90
2023-02-23T07:45:16.948Z,8.50
2023-02-23T07:47:45.246Z,8.60
2023-02-23T07:50:14.160Z,8.60
2023-02-23T07:52:43.127Z,8.50
2023-02-23T07:55:11.898Z,8.50
2023-02-23T07:57:40.246Z,8.40
2023-02-23T08:00:09.716Z,8.90
2023-02-23T08:02:42.136Z,9.70
2023-02-23T08:05:11.897Z,9.30
2023-02-23T08:07:42.179Z,8.30
2023-02-23T08:10:11.652Z,8.50
2023-02-23T08:12:41.470Z,8.80
2023-02-23T08:15:10.223Z,8.90
2023-02-23T08:17:41.874Z,15.30
2023-02-23T08:20:11.501Z,9.80
2023-02-23T08:22:49.232Z,8.90
2023-02-23T08:25:18.773Z,9.30
2023-02-23T08:27:52.219Z,9.50
2023-02-23T08:30:24.552Z,8.80
2023-02-23T08:32:53.104Z,9.40
2023-02-23T08:35:21.834Z,9.50
2023-02-23T08:37:50.087Z,10.90
2023-02-23T08:40:20.940Z,9.20
2023-02-23T08:42:52.985Z,8.90
2023-02-23T08:45:21.300Z,9.00
2023-02-23T08:47:49.859Z,9.30
2023-02-23T08:50:18.554Z,9.00
2023-02-23T08:52:46.887Z,8.50
2023-02-23T08:55:22.746Z,8.40
2023-02-23T08:57:50.925Z,8.40
2023-02-23T09:00:19.887Z,8.60
2023-02-23T09:02:49.858Z,8.50
2023-02-23T09:05:18.344Z,9.00
2023-02-23T09:07:49.275Z,8.00
2023-02-23T09:10:20.152Z,8.80
2023-02-23T09:12:48.447Z,9.00
2023-02-23T09:15:17.250Z,14.30
2023-02-23T09:17:47.709Z,9.60
2023-02-23T09:20:17.247Z,9.50
2023-02-23T09:22:48.759Z,9.60
2023-02-23T09:25:19.309Z,9.40
2023-02-23T09:27:49.275Z,8.70
2023-02-23T09:30:20.850Z,9.00
2023-02-23T09:32:50.398Z,7.00
2023-02-23T09:35:19.703Z,8.70
2023-02-23T09:37:49.745Z,9.00
2023-02-23T09:40:26.337Z,9.30
2023-02-23T09:43:03.605Z,8.40
2023-02-23T09:45:31.857Z,8.30
2023-02-23T09:48:10.602Z,8.20
2023-02-23T09:50:40.550Z,8.00
2023-02-23T09:53:21.169Z,8.90
2023-02-23T09:55:49.757Z,8.70
2023-02-23T09:58:31.829Z,8.80
2023-02-23T10:01:58.560Z,8.50
2023-02-23T10:04:39.862Z,8.60
2023-02-23T10:07:19.302Z,9.30
2023-02-23T10:10:25.011Z,8.90
2023-02-23T10:13:14.137Z,8.20
2023-02-23T10:15:52.848Z,8.60
2023-02-23T10:18:45.261Z,8.60
2023-02-23T10:21:18.995Z,9.30
2023-02-23T10:23:54.928Z,9.20
2023-02-23T10:26:25.547Z,8.60
2023-02-23T10:28:55.158Z,9.30
2023-02-23T10:31:42.542Z,8.40
2023-02-23T10:34:17.124Z,8.40
2023-02-23T10:37:01.948Z,8.30
2023-02-23T10:39:30.600Z,9.40
2023-02-23T10:42:04.117Z,8.80
2023-02-23T10:44:32.948Z,9.10
2023-02-23T10:47:11.853Z,6.40
2023-02-23T10:49:55.591Z,8.70
2023-02-23T10:52:32.505Z,8.90
2023-02-23T10:55:03.558Z,9.30
2023-02-23T10:57:39.976Z,9.40
2023-02-23T11:00:20.478Z,9.60
2023-02-23T11:02:48.810Z,8.20
2023-02-23T11:05:33.628Z,8.80
2023-02-23T11:08:25.241Z,8.50
2023-02-23T11:10:57.508Z,9.00
2023-02-23T11:13:40.696Z,9.60
2023-02-23T11:16:13.339Z,10.70
2023-02-23T11:18:43.410Z,10.10
2023-02-23T11:21:12.812Z,9.90
2023-02-23T11:23:41.124Z,8.30
2023-02-23T11:26:38.132Z,9.60
2023-02-23T11:29:47.576Z,9.50
2023-02-23T11:32:19.338Z,8.00
2023-02-23T11:34:49.507Z,7.90
2023-02-23T11:37:23.419Z,9.00
2023-02-23T11:39:55.529Z,8.10
2023-02-23T11:42:28.286Z,8.20
2023-02-23T11:45:03.404Z,7.30
2023-02-23T11:47:32.914Z,9.30
2023-02-23T11:50:01.587Z,7.30
2023-02-23T11:52:30.130Z,7.50
2023-02-23T11:55:02.068Z,7.40
2023-02-23T11:57:40.106Z,7.70
2023-02-23T12:00:13.251Z,7.30
2023-02-23T12:03:00.227Z,8.30
2023-02-23T12:05:32.693Z,7.10
2023-02-23T12:08:11.624Z,8.10
2023-02-23T12:10:44.467Z,7.50
2023-02-23T12:16:05.715Z,6.50
2023-02-23T12:18:46.805Z,6.60
2023-02-23T12:21:36.897Z,6.50
2023-02-23T12:24:08.491Z,6.60
2023-02-23T12:26:49.689Z,6.20
2023-02-23T12:29:31.934Z,6.50
2023-02-23T12:32:03.200Z,6.80
2023-02-23T12:34:43.035Z,6.90
2023-02-23T12:37:28.242Z,7.10
2023-02-23T12:39:59.151Z,6.70
2023-02-23T12:42:38.953Z,6.70
2023-02-23T12:45:16.414Z,7.10
2023-02-23T12:47:56.460Z,7.60
2023-02-23T12:50:34.765Z,7.10
2023-02-23T12:53:07.156Z,7.60
2023-02-23T12:55:42.140Z,7.20
2023-02-23T12:58:28.860Z,7.30
2023-02-23T13:01:12.350Z,7.20
2023-02-23T13:04:17.584Z,7.40
2023-02-23T13:07:18.086Z,7.10
2023-02-23T13:10:01.186Z,7.70
2023-02-23T13:12:44.533Z,7.50
2023-02-23T13:15:48.790Z,8.00
2023-02-23T13:18:24.884Z,7.30
2023-02-23T13:21:03.914Z,7.50
2023-02-23T13:23:47.466Z,7.20
2023-02-23T13:26:34.804Z,7.60
2023-02-23T13:29:04.101Z,7.50
2023-02-23T13:31:37.201Z,8.20
2023-02-23T13:34:10.468Z,8.10
2023-02-23T13:39:47.904Z,8.60
2023-02-23T13:42:16.569Z,8.30
2023-02-23T13:44:53.731Z,8.80
2023-02-23T13:47:46.678Z,8.70
2023-02-23T13:50:22.732Z,9.70
2023-02-23T13:52:55.836Z,8.10
2023-02-23T13:55:29.437Z,8.40
2023-02-23T13:58:06.872Z,9.10
2023-02-23T14:00:36.896Z,7.90
2023-02-23T14:03:05.903Z,8.10
2023-02-23T14:05:44.183Z,8.40
2023-02-23T14:08:26.642Z,7.90
2023-02-23T14:10:57.477Z,5.40
2023-02-23T14:13:28.971Z,8.80
2023-02-23T14:16:17.994Z,10.10
2023-02-23T14:19:12.594Z,14.00
2023-02-23T14:21:52.645Z,15.50
2023-02-23T14:24:25.181Z,15.60
2023-02-23T14:29:41.639Z,8.80
2023-02-23T14:32:13.066Z,8.70
2023-02-23T14:34:43.432Z,7.20
2023-02-23T14:37:22.300Z,8.00
2023-02-23T14:39:51.362Z,6.80
2023-02-23T14:42:25.150Z,9.10
2023-02-23T14:44:55.300Z,8.00
2023-02-23T14:47:26.038Z,8.40
2023-02-23T14:49:58.751Z,11.80
2023-02-23T14:52:27.604Z,9.50
2023-02-23T14:55:27.987Z,8.50
2023-02-23T14:57:58.291Z,22.10
2023-02-23T15:00:33.202Z,18.80
2023-02-23T15:03:12.750Z,29.50
2023-02-23T15:05:55.858Z,28.80
2023-02-23T15:08:29.001Z,18.40
2023-02-23T15:11:03.651Z,19.80
2023-02-23T15:16:08.162Z,13.70
2023-02-23T15:18:38.527Z,16.80
2023-02-23T15:21:13.873Z,19.00
2023-02-23T15:23:44.696Z,13.60
2023-02-23T15:26:32.102Z,21.90
2023-02-23T15:29:09.991Z,24.20
2023-02-23T15:31:50.266Z,35.50
2023-02-23T15:34:21.282Z,31.30
2023-02-23T15:37:00.060Z,23.00
2023-02-23T15:39:57.057Z,21.00
2023-02-23T15:42:35.821Z,21.10
2023-02-23T15:45:11.801Z,24.10
2023-02-23T15:47:40.077Z,19.00
2023-02-23T15:50:21.982Z,17.90
2023-02-23T15:53:00.001Z,29.80
2023-02-23T15:55:31.908Z,45.50
2023-02-23T15:58:00.417Z,24.80
2023-02-23T16:00:38.447Z,20.30
2023-02-23T16:03:09.000Z,22.20
2023-02-23T16:05:46.515Z,17.40
2023-02-23T16:08:23.870Z,15.80
2023-02-23T16:11:23.154Z,16.20
2023-02-23T16:13:51.736Z,15.50
2023-02-23T16:16:25.634Z,14.40
2023-02-23T16:19:01.315Z,14.90
2023-02-23T16:21:33.146Z,14.70
2023-02-23T16:24:22.346Z,15.10
2023-02-23T16:26:57.291Z,16.10
2023-02-23T16:29:42.068Z,16.70
2023-02-23T16:32:15.992Z,21.60
2023-02-23T16:34:51.404Z,28.90
2023-02-23T16:37:23.314Z,31.50
2023-02-23T16:39:52.021Z,32.80
2023-02-23T16:42:27.721Z,31.70
2023-02-23T16:44:57.623Z,32.90
2023-02-23T16:47:40.675Z,27.20
2023-02-23T16:50:20.335Z,24.50
2023-02-23T16:52:53.821Z,24.50
2023-02-23T16:55:26.153Z,24.40
2023-02-23T16:58:00.576Z,32.00
2023-02-23T17:00:31.805Z,28.80
2023-02-23T17:03:01.527Z,27.60
2023-02-23T17:05:30.461Z,26.10
2023-02-23T17:07:59.745Z,26.30
2023-02-23T17:10:30.987Z,26.00
2023-02-23T17:13:07.102Z,27.30
2023-02-23T17:15:38.158Z,30.20
2023-02-23T17:18:06.499Z,28.80
2023-02-23T17:20:34.748Z,28.40
2023-02-23T17:23:03.282Z,34.90
2023-02-23T17:25:31.638Z,35.80
2023-02-23T17:28:00.162Z,34.60
2023-02-23T17:30:28.546Z,35.70
2023-02-23T17:32:58.064Z,35.30
2023-02-23T17:35:28.148Z,34.60
2023-02-23T17:37:57.990Z,36.10
2023-02-23T17:40:29.614Z,36.70
2023-02-23T17:42:59.265Z,40.70
2023-02-23T17:45:27.959Z,41.00
2023-02-23T17:47:56.685Z,39.00
2023-02-23T17:50:27.207Z,46.50
2023-02-23T17:52:56.861Z,51.00
2023-02-23T17:55:26.931Z,45.90
2023-02-23T17:57:55.111Z,43.90
2023-02-23T18:00:25.204Z,42.60
2023-02-23T18:02:55.612Z,42.90
2023-02-23T18:05:24.132Z,46.20
2023-02-23T18:07:52.616Z,49.70
2023-02-23T18:10:25.597Z,46.00
2023-02-23T18:12:55.439Z,47.60
2023-02-23T18:15:24.550Z,45.70
2023-02-23T18:17:54.741Z,47.70
2023-02-23T18:20:24.855Z,49.20
2023-02-23T18:22:53.187Z,51.20
2023-02-23T18:25:28.733Z,49.40
2023-02-23T18:27:58.637Z,45.80
2023-02-23T18:30:29.881Z,42.00
2023-02-23T18:33:01.667Z,44.00
2023-02-23T18:35:37.992Z,39.20
2023-02-23T18:38:09.141Z,36.30
2023-02-23T18:40:38.961Z,35.50
2023-02-23T18:43:08.220Z,34.10
2023-02-23T18:45:36.988Z,28.70
2023-02-23T18:48:10.204Z,29.10
2023-02-23T18:50:38.789Z,35.40
2023-02-23T18:53:09.212Z,32.70
2023-02-23T18:55:38.713Z,32.80
2023-02-23T18:58:07.938Z,34.70
2023-02-23T19:00:42.784Z,30.90
2023-02-23T19:03:18.795Z,28.60
2023-02-23T19:05:53.153Z,25.60
2023-02-23T19:08:21.839Z,26.60
2023-02-23T19:10:52.249Z,23.30
2023-02-23T19:13:22.404Z,23.40
2023-02-23T19:15:53.603Z,22.50
2023-02-23T19:18:22.411Z,21.50
2023-02-23T19:20:55.497Z,22.80
2023-02-23T19:23:24.138Z,22.60
2023-02-23T19:25:52.793Z,21.10
2023-02-23T19:28:22.749Z,21.20
2023-02-23T19:31:00.394Z,21.10
2023-02-23T19:33:32.704Z,19.40
2023-02-23T19:36:04.895Z,18.70
2023-02-23T19:41:06.142Z,17.40
2023-02-23T19:43:34.551Z,14.80
2023-02-23T19:46:10.736Z,18.20
2023-02-23T19:48:39.212Z,15.80
2023-02-23T19:51:10.965Z,14.10
2023-02-23T19:53:39.660Z,15.20
2023-02-23T19:56:11.417Z,16.10
2023-02-23T19:58:46.792Z,13.30
2023-02-23T20:01:18.383Z,18.40
2023-02-23T20:03:49.688Z,17.00
2023-02-23T20:06:17.948Z,17.70
2023-02-23T20:08:48.389Z,16.50
2023-02-23T20:11:18.722Z,16.10
2023-02-23T20:13:51.053Z,16.50
2023-02-23T20:16:19.842Z,16.80
2023-02-23T20:18:51.973Z,17.70
2023-02-23T20:21:23.562Z,16.50
2023-02-23T20:23:52.401Z,15.70
2023-02-23T20:26:23.216Z,16.20
2023-02-23T20:28:51.745Z,15.80
2023-02-23T20:31:25.845Z,16.80
2023-02-23T20:33:56.630Z,14.20
2023-02-23T20:36:25.151Z,13.40
2023-02-23T20:38:53.636Z,14.00
2023-02-23T20:41:22.914Z,14.00
2023-02-23T20:43:54.376Z,14.10
2023-02-23T20:46:24.651Z,14.70
2023-02-23T20:48:52.957Z,14.40
2023-02-23T20:51:21.658Z,13.40
2023-02-23T20:53:50.178Z,12.60
2023-02-23T20:56:19.201Z,13.30
2023-02-23T20:58:48.765Z,12.70
2023-02-23T21:01:20.798Z,12.50
2023-02-23T21:03:51.686Z,12.50
2023-02-23T21:06:21.875Z,13.60
2023-02-23T21:08:50.667Z,14.20
2023-02-23T21:11:22.289Z,14.10
2023-02-23T21:13:51.727Z,15.30
2023-02-23T21:16:20.774Z,15.70
2023-02-23T21:19:04.073Z,15.60
2023-02-23T21:21:40.134Z,14.50
2023-02-23T21:24:08.830Z,14.10
2023-02-23T21:26:37.243Z,14.60
2023-02-23T21:29:08.238Z,13.50
2023-02-23T21:31:41.743Z,13.30
2023-02-23T21:36:39.267Z,11.80
2023-02-23T21:39:08.737Z,11.70
2023-02-23T21:41:38.332Z,12.00
2023-02-23T21:44:07.920Z,13.00
2023-02-23T21:46:40.709Z,8.50
2023-02-23T21:49:10.018Z,12.10
2023-02-23T21:51:38.708Z,11.20
2023-02-23T21:54:07.742Z,11.80
2023-02-23T21:56:36.860Z,11.70
2023-02-23T21:59:06.200Z,11.70
2023-02-23T22:01:36.040Z,11.60
2023-02-23T22:04:05.884Z,11.50
2023-02-23T22:06:37.191Z,11.90
2023-02-23T22:09:12.760Z,11.10
2023-02-23T22:14:16.725Z,12.70
2023-02-23T22:16:46.621Z,12.80
2023-02-23T22:19:16.616Z,10.90
2023-02-23T22:21:47.957Z,11.30
2023-02-23T22:24:16.999Z,11.00
2023-02-23T22:26:50.762Z,11.30
2023-02-23T22:29:20.665Z,11.10
2023-02-23T22:31:49.224Z,10.80
2023-02-23T22:34:18.535Z,10.40
2023-02-23T22:36:50.283Z,10.10
2023-02-23T22:39:20.107Z,10.50
2023-02-23T22:41:48.540Z,9.70
2023-02-23T22:44:19.488Z,9.40
2023-02-23T22:46:52.326Z,10.10
2023-02-23T22:49:20.915Z,10.50
2023-02-23T22:51:50.638Z,9.70
2023-02-23T22:54:23.852Z,9.80
2023-02-23T22:56:52.022Z,10.30
2023-02-23T22:59:20.521Z,10.10
2023-02-23T23:01:51.285Z,10.20
2023-02-23T23:04:22.455Z,10.10
2023-02-23T23:06:50.825Z,10.40
2023-02-23T23:09:21.234Z,10.80
2023-02-23T23:11:51.011Z,9.70
2023-02-23T23:14:25.213Z,10.70
2023-02-23T23:16:55.302Z,10.70
2023-02-23T23:19:24.459Z,11.60
2023-02-23T23:21:55.450Z,10.90
2023-02-23T23:24:27.257Z,11.30
2023-02-23T23:26:56.230Z,11.30
2023-02-23T23:29:25.973Z,11.40
2023-02-23T23:31:57.318Z,11.50
2023-02-23T23:34:25.778Z,10.70
2023-02-23T23:36:58.225Z,7.80
2023-02-23T23:39:27.302Z,10.10
2023-02-23T23:41:55.529Z,10.60
2023-02-23T23:44:25.063Z,11.50
2023-02-23T23:46:53.464Z,10.40
2023-02-23T23:49:26.696Z,10.30
2023-02-23T23:51:57.304Z,11.10
2023-02-23T23:54:28.255Z,10.20
2023-02-23T23:57:01.573Z,10.00
2023-02-23T23:59:30.176Z,5.80
